createdAt,value
2023-03-24T00:00:18.440Z,12.01
2023-03-24T00:03:05.938Z,12.08
2023-03-24T00:05:35.168Z,12.00
2023-03-24T00:08:05.254Z,11.97
2023-03-24T00:10:42.273Z,11.87
2023-03-24T00:13:14.060Z,11.77
2023-03-24T00:15:41.123Z,11.67
2023-03-24T00:18:10.837Z,11.63
2023-03-24T00:20:37.908Z,11.60
2023-03-24T00:23:05.172Z,11.56
2023-03-24T00:25:40.242Z,11.54
2023-03-24T00:28:07.760Z,11.45
2023-03-24T00:30:35.212Z,11.39
2023-03-24T00:33:07.032Z,11.34
2023-03-24T00:35:34.383Z,11.38
2023-03-24T00:38:01.586Z,11.40
2023-03-24T00:40:28.440Z,11.40
2023-03-24T00:42:55.777Z,11.34
2023-03-24T00:45:25.651Z,11.26
2023-03-24T00:47:58.259Z,11.26
2023-03-24T00:50:28.767Z,11.30
2023-03-24T00:52:56.502Z,11.32
2023-03-24T00:55:23.638Z,11.24
2023-03-24T00:57:51.365Z,11.22
2023-03-24T01:00:21.219Z,11.30
2023-03-24T01:02:53.666Z,11.37
2023-03-24T01:05:25.799Z,11.37
2023-03-24T01:07:56.506Z,11.41
2023-03-24T01:10:26.876Z,11.44
2023-03-24T01:12:58.728Z,11.38
2023-03-24T01:15:28.068Z,11.42
2023-03-24T01:17:56.103Z,11.48
2023-03-24T01:20:23.848Z,11.49
2023-03-24T01:22:51.502Z,11.48
2023-03-24T01:25:20.097Z,11.47
2023-03-24T01:27:48.364Z,11.43
2023-03-24T01:30:18.059Z,11.39
2023-03-24T01:32:45.442Z,11.33
2023-03-24T01:35:12.865Z,11.34
2023-03-24T01:37:42.582Z,11.35
2023-03-24T01:40:11.191Z,11.34
2023-03-24T01:42:39.588Z,11.38
2023-03-24T01:45:26.140Z,11.38
2023-03-24T01:47:53.422Z,11.38
2023-03-24T01:50:20.455Z,11.37
2023-03-24T01:52:51.146Z,11.43
2023-03-24T01:55:19.999Z,11.37
2023-03-24T01:57:51.697Z,11.37
2023-03-24T02:00:21.651Z,11.34
2023-03-24T02:03:10.192Z,11.38
2023-03-24T02:05:47.142Z,11.34
2023-03-24T02:08:22.110Z,11.39
2023-03-24T02:10:49.466Z,11.40
2023-03-24T02:13:16.839Z,11.35
2023-03-24T02:15:53.392Z,11.32
2023-03-24T02:18:45.215Z,11.29
2023-03-24T02:21:30.900Z,11.22
2023-03-24T02:24:07.497Z,11.21
2023-03-24T02:26:37.539Z,11.14
2023-03-24T02:29:17.041Z,11.17
2023-03-24T02:31:56.500Z,11.10
2023-03-24T02:34:43.339Z,11.06
2023-03-24T02:37:22.309Z,11.02
2023-03-24T02:39:55.678Z,11.00
2023-03-24T02:42:43.946Z,10.99
2023-03-24T02:45:17.817Z,10.97
2023-03-24T02:48:03.350Z,10.90
2023-03-24T02:50:31.368Z,10.87
2023-03-24T02:53:09.801Z,10.84
2023-03-24T02:56:04.722Z,10.75
2023-03-24T02:58:38.086Z,10.73
2023-03-24T03:01:08.867Z,10.69
2023-03-24T03:04:37.223Z,10.79
2023-03-24T03:07:12.939Z,10.75
2023-03-24T03:09:47.852Z,10.71
2023-03-24T03:12:16.204Z,10.72
2023-03-24T03:14:49.002Z,10.70
2023-03-24T03:17:20.906Z,10.82
2023-03-24T03:19:52.659Z,10.81
2023-03-24T03:22:23.320Z,10.99
2023-03-24T03:24:53.114Z,11.06
2023-03-24T03:27:27.242Z,11.02
2023-03-24T03:30:06.136Z,11.05
2023-03-24T03:32:36.086Z,11.16
2023-03-24T03:35:19.821Z,11.19
2023-03-24T03:37:50.547Z,11.25
2023-03-24T03:40:26.192Z,11.17
2023-03-24T03:42:59.718Z,11.10
2023-03-24T03:45:26.819Z,11.06
2023-03-24T03:47:54.439Z,11.08
2023-03-24T03:50:22.258Z,11.10
2023-03-24T03:52:50.155Z,11.16
2023-03-24T03:55:17.197Z,11.11
2023-03-24T03:57:44.783Z,11.06
2023-03-24T04:00:50.912Z,11.09
2023-03-24T04:03:56.697Z,11.11
2023-03-24T04:06:36.157Z,11.10
2023-03-24T04:09:24.332Z,11.13
2023-03-24T04:11:51.352Z,11.09
2023-03-24T04:14:41.253Z,11.05
2023-03-24T04:17:46.367Z,11.12
2023-03-24T04:20:34.480Z,11.16
2023-03-24T04:23:14.554Z,11.14
2023-03-24T04:26:06.253Z,11.16
2023-03-24T04:28:39.752Z,11.09
2023-03-24T04:31:27.236Z,11.09
2023-03-24T04:34:03.219Z,11.13
2023-03-24T04:36:42.253Z,11.08
2023-03-24T04:39:40.842Z,11.09
2023-03-24T04:42:28.163Z,11.10
2023-03-24T04:44:57.663Z,11.15
2023-03-24T04:47:48.426Z,11.10
2023-03-24T04:50:40.286Z,11.07
2023-03-24T04:53:13.695Z,10.99
2023-03-24T04:55:50.878Z,10.94
2023-03-24T04:58:41.802Z,10.94
2023-03-24T05:01:09.269Z,10.85
2023-03-24T05:03:39.203Z,10.88
2023-03-24T05:06:07.746Z,10.87
2023-03-24T05:08:35.498Z,10.86
2023-03-24T05:11:02.744Z,10.84
2023-03-24T05:13:32.523Z,10.83
2023-03-24T05:16:02.041Z,10.82
2023-03-24T05:18:35.116Z,10.76
2023-03-24T05:21:02.952Z,10.77
2023-03-24T05:23:30.493Z,10.76
2023-03-24T05:25:58.436Z,10.80
2023-03-24T05:28:28.110Z,10.82
2023-03-24T05:30:55.748Z,10.99
2023-03-24T05:33:42.073Z,10.97
2023-03-24T05:36:13.105Z,11.01
2023-03-24T05:38:44.128Z,11.19
2023-03-24T05:41:11.427Z,11.37
2023-03-24T05:43:42.428Z,11.38
2023-03-24T05:46:15.112Z,11.46
2023-03-24T05:48:43.799Z,11.56
2023-03-24T05:51:12.899Z,11.65
2023-03-24T05:53:42.808Z,11.80
2023-03-24T05:56:14.439Z,11.90
2023-03-24T05:59:00.429Z,12.06
2023-03-24T06:01:53.446Z,12.08
2023-03-24T06:04:30.676Z,12.16
2023-03-24T06:07:04.100Z,12.20
2023-03-24T06:09:35.978Z,12.25
2023-03-24T06:12:06.514Z,12.27
2023-03-24T06:14:39.224Z,12.35
2023-03-24T06:17:15.149Z,12.34
2023-03-24T06:19:50.360Z,12.34
2023-03-24T06:22:37.520Z,12.40
2023-03-24T06:25:09.954Z,12.44
2023-03-24T06:27:38.106Z,12.57
2023-03-24T06:30:08.712Z,12.61
2023-03-24T06:32:39.050Z,12.73
2023-03-24T06:35:07.387Z,12.77
2023-03-24T06:37:44.847Z,12.78
2023-03-24T06:40:16.400Z,12.77
2023-03-24T06:42:50.646Z,12.86
2023-03-24T06:45:18.018Z,12.90
2023-03-24T06:47:47.048Z,12.91
2023-03-24T06:50:14.415Z,13.01
2023-03-24T06:52:41.996Z,13.06
2023-03-24T06:55:11.994Z,13.14
2023-03-24T06:57:39.327Z,13.22
2023-03-24T07:00:29.444Z,13.32
2023-03-24T07:03:10.543Z,13.42
2023-03-24T07:05:41.545Z,13.58
2023-03-24T07:08:33.971Z,13.79
2023-03-24T07:10:59.770Z,14.01
2023-03-24T07:13:26.714Z,14.04
2023-03-24T07:16:01.482Z,14.13
2023-03-24T07:18:28.836Z,14.04
2023-03-24T07:21:00.922Z,14.13
2023-03-24T07:23:28.755Z,14.19
2023-03-24T07:26:15.997Z,14.35
2023-03-24T07:28:43.051Z,14.35
2023-03-24T07:31:12.333Z,14.58
2023-03-24T07:33:43.262Z,14.90
2023-03-24T07:36:10.855Z,15.18
2023-03-24T07:38:39.929Z,16.14
2023-03-24T07:41:11.740Z,16.37
2023-03-24T07:43:43.364Z,16.20
2023-03-24T07:46:24.693Z,15.89
2023-03-24T07:48:52.313Z,15.58
2023-03-24T07:51:20.141Z,15.44
2023-03-24T07:53:59.497Z,15.18
2023-03-24T07:56:33.504Z,14.99
2023-03-24T07:59:02.081Z,14.71
2023-03-24T08:01:47.830Z,14.82
2023-03-24T08:04:16.262Z,14.89
2023-03-24T08:07:10.133Z,14.98
2023-03-24T08:09:37.093Z,15.02
2023-03-24T08:12:10.291Z,15.00
2023-03-24T08:14:46.749Z,15.01
2023-03-24T08:17:16.510Z,14.88
2023-03-24T08:19:58.517Z,14.68
2023-03-24T08:22:27.346Z,14.85
2023-03-24T08:24:54.221Z,15.03
2023-03-24T08:27:21.552Z,15.16
2023-03-24T08:29:48.512Z,15.47
2023-03-24T08:32:16.095Z,15.82
2023-03-24T08:34:43.137Z,16.03
2023-03-24T08:37:12.166Z,16.02
2023-03-24T08:39:39.105Z,16.04
2023-03-24T08:42:06.751Z,16.06
2023-03-24T08:44:33.699Z,16.20
2023-03-24T08:47:01.401Z,16.31
2023-03-24T08:49:30.719Z,16.60
2023-03-24T08:52:00.548Z,16.99
2023-03-24T08:54:27.897Z,16.98
2023-03-24T08:56:55.131Z,17.49
2023-03-24T08:59:24.268Z,17.75
2023-03-24T09:01:51.902Z,18.12
2023-03-24T09:04:21.896Z,18.09
2023-03-24T09:06:50.083Z,18.37
2023-03-24T09:09:17.062Z,18.47
2023-03-24T09:11:46.831Z,18.27
2023-03-24T09:14:13.829Z,18.50
2023-03-24T09:16:44.022Z,18.71
2023-03-24T09:19:11.169Z,18.66
2023-03-24T09:21:38.546Z,18.96
2023-03-24T09:24:07.878Z,18.92
2023-03-24T09:26:35.224Z,18.71
2023-03-24T09:29:02.760Z,18.94
2023-03-24T09:31:30.016Z,19.11
2023-03-24T09:33:56.964Z,19.23
2023-03-24T09:36:24.292Z,19.28
2023-03-24T09:38:51.482Z,19.29
2023-03-24T09:41:21.233Z,19.35
2023-03-24T09:43:52.398Z,19.34
2023-03-24T09:46:30.703Z,19.03
2023-03-24T09:48:58.046Z,19.09
2023-03-24T09:51:42.815Z,19.05
2023-03-24T09:54:18.626Z,19.19
2023-03-24T09:56:48.040Z,19.35
2023-03-24T09:59:20.116Z,19.17
2023-03-24T10:01:50.285Z,19.10
2023-03-24T10:04:19.461Z,19.09
2023-03-24T10:06:53.332Z,19.02
2023-03-24T10:09:28.688Z,19.03
2023-03-24T10:11:59.122Z,19.07
2023-03-24T10:14:26.071Z,19.03
2023-03-24T10:16:56.409Z,19.22
2023-03-24T10:19:43.631Z,19.24
2023-03-24T10:22:16.938Z,19.37
2023-03-24T10:24:44.824Z,19.45
2023-03-24T10:27:18.070Z,19.62
2023-03-24T10:29:48.204Z,19.57
2023-03-24T10:32:19.887Z,19.42
2023-03-24T10:34:48.862Z,19.52
2023-03-24T10:37:17.579Z,19.53
2023-03-24T10:39:47.135Z,19.25
2023-03-24T10:42:25.692Z,19.34
2023-03-24T10:44:52.837Z,19.31
2023-03-24T10:47:24.332Z,19.22
2023-03-24T10:49:58.504Z,19.24
2023-03-24T10:52:29.499Z,19.38
2023-03-24T10:55:04.719Z,19.37
2023-03-24T10:57:32.869Z,19.50
2023-03-24T11:00:02.185Z,19.50
2023-03-24T11:02:31.137Z,19.65
2023-03-24T11:04:58.337Z,19.82
2023-03-24T11:07:30.175Z,19.83
2023-03-24T11:10:03.198Z,19.70
2023-03-24T11:12:34.759Z,19.51
2023-03-24T11:15:21.222Z,19.82
2023-03-24T11:17:58.730Z,19.69
2023-03-24T11:20:31.011Z,19.86
2023-03-24T11:23:02.967Z,19.97
2023-03-24T11:25:34.263Z,20.05
2023-03-24T11:28:05.466Z,20.34
2023-03-24T11:30:45.629Z,20.48
2023-03-24T11:33:20.861Z,20.33
2023-03-24T11:36:06.613Z,20.26
2023-03-24T11:38:34.851Z,20.48
2023-03-24T11:41:04.993Z,20.53
2023-03-24T11:43:32.602Z,20.51
2023-03-24T11:46:02.571Z,20.54
2023-03-24T11:48:41.677Z,20.39
2023-03-24T11:51:12.591Z,20.35
2023-03-24T11:53:46.947Z,20.48
2023-03-24T11:56:17.254Z,20.31
2023-03-24T11:58:50.946Z,19.94
2023-03-24T12:01:17.961Z,20.00
2023-03-24T12:03:51.908Z,20.13
2023-03-24T12:06:28.405Z,20.37
2023-03-24T12:09:14.669Z,20.39
2023-03-24T12:11:51.073Z,20.54
2023-03-24T12:14:37.076Z,20.10
2023-03-24T12:17:11.582Z,20.28
2023-03-24T12:19:50.376Z,20.06
2023-03-24T12:22:21.317Z,20.03
2023-03-24T12:24:54.945Z,20.03
2023-03-24T12:27:42.157Z,20.12
2023-03-24T12:30:15.753Z,20.23
2023-03-24T12:32:59.808Z,20.15
2023-03-24T12:35:43.353Z,20.04
2023-03-24T12:38:51.427Z,20.39
2023-03-24T12:41:37.078Z,20.83
2023-03-24T12:44:22.748Z,21.01
2023-03-24T12:47:01.765Z,20.94
2023-03-24T12:49:31.325Z,21.01
2023-03-24T12:52:17.676Z,20.97
2023-03-24T12:54:53.235Z,20.83
2023-03-24T12:57:24.910Z,20.86
2023-03-24T12:59:51.764Z,20.84
2023-03-24T13:02:34.305Z,20.95
2023-03-24T13:05:08.584Z,20.82
2023-03-24T13:07:39.908Z,20.91
2023-03-24T13:10:16.508Z,20.83
2023-03-24T13:12:53.083Z,20.82
2023-03-24T13:15:26.364Z,20.67
2023-03-24T13:17:56.660Z,20.66
2023-03-24T13:20:34.157Z,20.71
2023-03-24T13:23:31.463Z,20.87
2023-03-24T13:26:10.757Z,20.66
2023-03-24T13:28:47.963Z,20.81
2023-03-24T13:31:19.808Z,20.74
2023-03-24T13:33:48.404Z,20.84
2023-03-24T13:36:33.684Z,20.87
2023-03-24T13:39:12.571Z,20.71
2023-03-24T13:41:39.865Z,20.65
2023-03-24T13:44:17.932Z,20.70
2023-03-24T13:46:59.239Z,20.85
2023-03-24T13:49:26.632Z,20.94
2023-03-24T13:51:53.622Z,20.93
2023-03-24T13:54:22.734Z,21.00
2023-03-24T13:56:53.904Z,20.94
2023-03-24T13:59:25.658Z,20.83
2023-03-24T14:02:11.556Z,20.63
2023-03-24T14:04:46.457Z,20.52
2023-03-24T14:07:33.187Z,20.57
2023-03-24T14:10:02.502Z,20.63
2023-03-24T14:12:32.750Z,20.66
2023-03-24T14:15:23.548Z,20.51
2023-03-24T14:17:56.613Z,20.38
2023-03-24T14:20:34.796Z,20.48
2023-03-24T14:23:03.573Z,20.41
2023-03-24T14:25:32.262Z,20.38
2023-03-24T14:28:19.876Z,20.33
2023-03-24T14:31:00.305Z,20.25
2023-03-24T14:33:28.843Z,20.22
2023-03-24T14:36:05.031Z,20.11
2023-03-24T14:38:36.747Z,20.02
2023-03-24T14:41:09.121Z,19.91
2023-03-24T14:43:56.349Z,19.83
2023-03-24T14:46:37.317Z,19.74
2023-03-24T14:49:26.156Z,19.68
2023-03-24T14:52:12.590Z,19.60
2023-03-24T14:54:58.265Z,19.55
2023-03-24T14:57:26.976Z,19.51
2023-03-24T15:00:29.628Z,19.42
2023-03-24T15:03:02.913Z,19.39
2023-03-24T15:05:31.079Z,19.27
2023-03-24T15:08:16.879Z,19.08
2023-03-24T15:10:48.532Z,18.94
2023-03-24T15:13:30.911Z,18.86
2023-03-24T15:15:58.290Z,18.78
2023-03-24T15:18:26.169Z,18.71
2023-03-24T15:20:53.500Z,18.63
2023-03-24T15:23:22.290Z,18.59
2023-03-24T15:25:52.652Z,18.55
2023-03-24T15:28:26.739Z,18.48
2023-03-24T15:30:56.284Z,18.39
2023-03-24T15:33:26.261Z,18.35
2023-03-24T15:35:57.449Z,18.24
2023-03-24T15:38:31.537Z,17.97
2023-03-24T15:41:03.606Z,17.41
2023-03-24T15:43:31.187Z,16.88
2023-03-24T15:46:11.789Z,16.58
2023-03-24T15:48:40.038Z,16.31
2023-03-24T15:51:09.373Z,16.16
2023-03-24T15:53:41.731Z,16.04
2023-03-24T15:56:26.569Z,15.94
2023-03-24T15:58:55.139Z,15.83
2023-03-24T16:01:39.391Z,15.77
2023-03-24T16:04:17.589Z,15.69
2023-03-24T16:06:53.572Z,15.62
2023-03-24T16:09:22.322Z,15.52
2023-03-24T16:11:49.605Z,15.45
2023-03-24T16:14:23.093Z,15.39
2023-03-24T16:16:55.512Z,15.34
2023-03-24T16:19:23.143Z,15.27
2023-03-24T16:21:50.020Z,15.21
2023-03-24T16:24:17.359Z,15.11
2023-03-24T16:26:44.231Z,15.06
2023-03-24T16:29:17.119Z,15.02
2023-03-24T16:31:45.299Z,14.98
2023-03-24T16:34:12.553Z,14.92
2023-03-24T16:36:39.470Z,14.85
2023-03-24T16:39:13.315Z,14.81
2023-03-24T16:41:40.329Z,14.68
2023-03-24T16:44:07.522Z,14.59
2023-03-24T16:46:35.514Z,14.50
2023-03-24T16:49:04.592Z,14.48
2023-03-24T16:51:34.399Z,14.43
2023-03-24T16:54:05.483Z,14.40
2023-03-24T16:56:32.967Z,14.30
2023-03-24T16:59:00.396Z,14.21
2023-03-24T17:01:33.842Z,14.15
2023-03-24T17:04:09.799Z,14.10
2023-03-24T17:06:38.307Z,14.11
2023-03-24T17:09:06.122Z,14.03
2023-03-24T17:11:36.933Z,13.98
2023-03-24T17:14:05.814Z,13.93
2023-03-24T17:16:36.790Z,13.87
2023-03-24T17:19:07.374Z,13.84
2023-03-24T17:21:37.299Z,13.82
2023-03-24T17:24:07.050Z,13.80
2023-03-24T17:26:37.746Z,13.78
2023-03-24T17:29:05.361Z,13.78
2023-03-24T17:31:33.190Z,13.81
2023-03-24T17:34:08.480Z,13.81
2023-03-24T17:36:49.913Z,13.78
2023-03-24T17:39:17.888Z,13.75
2023-03-24T17:41:45.290Z,13.79
2023-03-24T17:44:12.956Z,13.77
2023-03-24T17:46:44.736Z,13.75
2023-03-24T17:49:12.663Z,13.78
2023-03-24T17:51:40.011Z,13.78
2023-03-24T17:54:08.023Z,13.78
2023-03-24T17:56:35.904Z,13.75
2023-03-24T17:59:05.295Z,13.72
2023-03-24T18:01:35.708Z,13.71
2023-03-24T18:04:03.996Z,13.67
2023-03-24T18:06:31.362Z,13.66
2023-03-24T18:08:59.000Z,13.62
2023-03-24T18:11:26.689Z,13.57
2023-03-24T18:13:58.660Z,13.55
2023-03-24T18:16:30.633Z,13.52
2023-03-24T18:18:58.756Z,13.48
2023-03-24T18:21:27.660Z,13.46
2023-03-24T18:23:56.702Z,13.37
2023-03-24T18:26:24.295Z,13.33
2023-03-24T18:28:55.574Z,13.27
2023-03-24T18:31:26.522Z,13.27
2023-03-24T18:33:55.120Z,13.25
2023-03-24T18:36:27.835Z,13.23
2023-03-24T18:38:58.972Z,13.22
2023-03-24T18:41:30.772Z,13.19
2023-03-24T18:43:59.742Z,13.18
2023-03-24T18:46:27.481Z,13.16
2023-03-24T18:48:55.801Z,13.17
2023-03-24T18:51:34.158Z,13.10
2023-03-24T18:54:02.801Z,13.05
2023-03-24T18:56:30.661Z,13.03
2023-03-24T18:58:58.668Z,13.00
2023-03-24T19:01:26.634Z,13.00
2023-03-24T19:03:57.267Z,12.98
2023-03-24T19:06:26.678Z,12.97
2023-03-24T19:08:56.093Z,12.95
2023-03-24T19:11:24.454Z,12.94
2023-03-24T19:13:57.020Z,12.93
2023-03-24T19:16:24.962Z,12.89
2023-03-24T19:18:56.730Z,12.86
2023-03-24T19:21:29.614Z,12.83
2023-03-24T19:23:57.800Z,12.81
2023-03-24T19:26:34.210Z,12.80
2023-03-24T19:29:09.200Z,12.79
2023-03-24T19:31:39.159Z,12.87
2023-03-24T19:34:09.351Z,12.84
2023-03-24T19:36:37.036Z,12.84
2023-03-24T19:39:05.316Z,12.84
2023-03-24T19:41:33.918Z,12.77
2023-03-24T19:44:02.493Z,12.68
2023-03-24T19:46:30.656Z,12.63
2023-03-24T19:49:01.554Z,12.61
2023-03-24T19:51:29.398Z,12.57
2023-03-24T19:53:59.751Z,12.57
2023-03-24T19:56:30.451Z,12.57
2023-03-24T19:58:59.004Z,12.58
2023-03-24T20:01:35.632Z,12.56
2023-03-24T20:04:03.702Z,12.56
2023-03-24T20:06:31.918Z,12.55
2023-03-24T20:09:05.133Z,12.53
2023-03-24T20:11:33.594Z,12.51
2023-03-24T20:14:01.838Z,12.54
2023-03-24T20:16:29.728Z,12.54
2023-03-24T20:18:58.148Z,12.52
2023-03-24T20:21:30.585Z,12.53
2023-03-24T20:24:06.936Z,12.53
2023-03-24T20:26:35.428Z,12.56
2023-03-24T20:29:04.843Z,12.54
2023-03-24T20:31:34.061Z,12.56
2023-03-24T20:34:02.452Z,12.52
2023-03-24T20:36:30.244Z,12.46
2023-03-24T20:39:00.290Z,12.39
2023-03-24T20:41:28.968Z,12.35
2023-03-24T20:43:58.168Z,12.34
2023-03-24T20:46:30.681Z,12.32
2023-03-24T20:48:59.065Z,12.33
2023-03-24T20:51:28.969Z,12.35
2023-03-24T20:53:58.812Z,12.42
2023-03-24T20:56:28.493Z,12.58
2023-03-24T20:58:56.788Z,12.79
2023-03-24T21:01:24.880Z,12.84
2023-03-24T21:03:58.263Z,12.97
2023-03-24T21:06:33.374Z,13.00
2023-03-24T21:09:05.189Z,13.03
2023-03-24T21:11:35.850Z,13.03
2023-03-24T21:14:06.290Z,13.07
2023-03-24T21:16:34.240Z,13.08
2023-03-24T21:19:05.116Z,13.09
2023-03-24T21:21:33.528Z,13.05
2023-03-24T21:24:02.563Z,13.00
2023-03-24T21:26:30.388Z,12.91
2023-03-24T21:28:58.365Z,12.92
2023-03-24T21:31:26.873Z,12.87
2023-03-24T21:33:55.118Z,12.92
2023-03-24T21:36:23.206Z,12.96
2023-03-24T21:38:53.995Z,12.91
2023-03-24T21:41:23.170Z,12.84
2023-03-24T21:43:54.700Z,12.87
2023-03-24T21:46:22.527Z,12.85
2023-03-24T21:48:55.848Z,12.83
2023-03-24T21:51:24.759Z,12.89
2023-03-24T21:53:56.056Z,12.97
2023-03-24T21:56:25.784Z,13.01
2023-03-24T21:58:54.216Z,13.07
2023-03-24T22:01:21.479Z,13.08
2023-03-24T22:03:50.774Z,13.20
2023-03-24T22:06:17.954Z,13.24
2023-03-24T22:08:48.863Z,13.23
2023-03-24T22:11:18.525Z,13.24
2023-03-24T22:13:46.714Z,13.26
2023-03-24T22:16:14.145Z,13.27
2023-03-24T22:18:43.664Z,13.20
2023-03-24T22:21:12.729Z,13.10
2023-03-24T22:23:42.713Z,13.03
2023-03-24T22:26:11.493Z,12.96
2023-03-24T22:28:38.804Z,12.87
2023-03-24T22:31:07.560Z,12.82
2023-03-24T22:33:34.833Z,12.90
2023-03-24T22:36:07.185Z,12.97
2023-03-24T22:38:34.900Z,13.02
2023-03-24T22:41:05.933Z,13.04
2023-03-24T22:43:33.501Z,13.10
2023-03-24T22:46:00.478Z,13.15
2023-03-24T22:48:30.108Z,13.11
2023-03-24T22:50:57.122Z,13.14
2023-03-24T22:53:24.481Z,13.11
2023-03-24T22:55:52.190Z,13.16
2023-03-24T22:58:19.741Z,13.23
2023-03-24T23:00:50.023Z,13.25
2023-03-24T23:03:17.436Z,13.28
2023-03-24T23:05:45.919Z,13.30
2023-03-24T23:08:15.235Z,13.35
2023-03-24T23:10:45.518Z,13.35
2023-03-24T23:13:12.744Z,13.38
2023-03-24T23:15:39.952Z,13.43
2023-03-24T23:18:07.393Z,13.42
2023-03-24T23:20:34.594Z,13.44
2023-03-24T23:23:02.787Z,13.44
2023-03-24T23:25:30.719Z,13.44
2023-03-24T23:27:58.316Z,13.43
2023-03-24T23:30:25.318Z,13.43
2023-03-24T23:32:53.020Z,13.37
2023-03-24T23:35:20.241Z,13.43
2023-03-24T23:37:48.432Z,13.38
2023-03-24T23:40:15.957Z,13.30
2023-03-24T23:42:47.297Z,13.27
2023-03-24T23:45:15.413Z,13.24
2023-03-24T23:47:47.015Z,13.19
2023-03-24T23:50:17.603Z,13.17
2023-03-24T23:52:44.973Z,13.11
2023-03-24T23:55:12.839Z,13.06
2023-03-24T23:57:42.654Z,13.02
